createdAt,value
2023-04-13T00:00:48.423Z,56.18
2023-04-13T00:03:18.340Z,56.27
2023-04-13T00:05:52.450Z,56.69
2023-04-13T00:08:23.560Z,56.04
2023-04-13T00:10:55.863Z,56.48
2023-04-13T00:13:26.353Z,56.85
2023-04-13T00:15:54.136Z,57.84
2023-04-13T00:18:21.565Z,57.79
2023-04-13T00:20:48.963Z,58.01
2023-04-13T00:23:16.874Z,58.06
2023-04-13T00:25:45.272Z,57.98
2023-04-13T00:28:14.205Z,58.34
2023-04-13T00:30:42.153Z,58.15
2023-04-13T00:33:10.024Z,58.12
2023-04-13T00:35:43.755Z,58.56
2023-04-13T00:38:13.046Z,58.56
2023-04-13T00:40:41.083Z,58.69
2023-04-13T00:43:10.736Z,58.77
2023-04-13T00:45:41.554Z,59.01
2023-04-13T00:48:12.867Z,59.19
2023-04-13T00:50:43.344Z,58.65
2023-04-13T00:53:14.690Z,58.72
2023-04-13T00:55:44.129Z,58.80
2023-04-13T00:58:15.115Z,58.83
2023-04-13T01:00:45.732Z,58.54
2023-04-13T01:03:16.200Z,58.58
2023-04-13T01:06:24.546Z,59.01
2023-04-13T01:08:59.040Z,58.42
2023-04-13T01:11:32.484Z,58.73
2023-04-13T01:14:09.322Z,59.12
2023-04-13T01:16:44.694Z,59.53
2023-04-13T01:19:34.624Z,59.65
2023-04-13T01:22:02.541Z,59.50
2023-04-13T01:25:08.855Z,58.72
2023-04-13T01:28:00.017Z,59.06
2023-04-13T01:30:29.402Z,58.77
2023-04-13T01:32:58.601Z,59.18
2023-04-13T01:35:33.768Z,58.16
2023-04-13T01:38:01.409Z,58.05
2023-04-13T01:40:31.560Z,58.20
2023-04-13T01:43:04.564Z,58.08
2023-04-13T01:45:46.293Z,57.69
2023-04-13T01:48:21.508Z,57.98
2023-04-13T01:51:19.713Z,57.72
2023-04-13T01:54:26.326Z,56.83
2023-04-13T01:56:57.544Z,56.61
2023-04-13T01:59:33.359Z,56.71
2023-04-13T02:02:03.453Z,56.43
2023-04-13T02:04:33.472Z,56.35
2023-04-13T02:07:04.430Z,56.10
2023-04-13T02:09:36.283Z,56.13
2023-04-13T02:12:17.543Z,55.36
2023-04-13T02:14:47.675Z,55.43
2023-04-13T02:17:19.335Z,55.50
2023-04-13T02:19:47.089Z,55.13
2023-04-13T02:22:17.812Z,54.96
2023-04-13T02:24:47.637Z,54.63
2023-04-13T02:27:17.434Z,55.02
2023-04-13T02:29:44.833Z,54.89
2023-04-13T02:32:12.107Z,54.32
2023-04-13T02:34:40.228Z,54.15
2023-04-13T02:37:09.423Z,54.50
2023-04-13T02:39:37.720Z,54.34
2023-04-13T02:42:06.489Z,54.70
2023-04-13T02:44:34.754Z,54.75
2023-04-13T02:47:04.904Z,54.54
2023-04-13T02:49:38.284Z,54.89
2023-04-13T02:52:34.839Z,53.76
2023-04-13T02:55:21.059Z,54.32
2023-04-13T02:57:58.339Z,54.31
2023-04-13T03:00:26.542Z,54.20
2023-04-13T03:03:09.923Z,54.03
2023-04-13T03:05:46.253Z,53.72
2023-04-13T03:08:22.411Z,53.74
2023-04-13T03:11:00.996Z,53.67
2023-04-13T03:13:32.101Z,53.79
2023-04-13T03:16:05.334Z,53.58
2023-04-13T03:18:41.779Z,52.90
2023-04-13T03:21:12.665Z,52.91
2023-04-13T03:23:48.325Z,52.90
2023-04-13T03:26:17.927Z,52.63
2023-04-13T03:28:48.099Z,52.94
2023-04-13T03:31:15.800Z,52.91
2023-04-13T03:33:46.943Z,52.79
2023-04-13T03:36:17.602Z,52.67
2023-04-13T03:38:50.267Z,52.95
2023-04-13T03:41:19.377Z,53.17
2023-04-13T03:43:47.767Z,52.96
2023-04-13T03:46:15.418Z,53.56
2023-04-13T03:48:48.262Z,53.40
2023-04-13T03:51:19.669Z,53.12
2023-04-13T03:53:52.325Z,52.77
2023-04-13T03:56:27.128Z,53.75
2023-04-13T03:58:58.472Z,53.14
2023-04-13T04:01:27.562Z,53.18
2023-04-13T04:03:58.825Z,53.12
2023-04-13T04:06:29.062Z,53.22
2023-04-13T04:09:11.013Z,53.78
2023-04-13T04:11:42.863Z,53.71
2023-04-13T04:14:14.200Z,53.39
2023-04-13T04:16:53.062Z,53.63
2023-04-13T04:19:24.102Z,54.00
2023-04-13T04:21:53.199Z,53.54
2023-04-13T04:24:25.783Z,53.97
2023-04-13T04:26:58.252Z,54.09
2023-04-13T04:29:35.699Z,53.15
2023-04-13T04:32:12.894Z,53.96
2023-04-13T04:34:41.119Z,53.88
2023-04-13T04:37:20.338Z,53.68
2023-04-13T04:40:00.380Z,53.81
2023-04-13T04:42:30.805Z,53.71
2023-04-13T04:45:01.601Z,53.65
2023-04-13T04:47:30.471Z,53.74
2023-04-13T04:50:15.154Z,54.29
2023-04-13T04:52:44.667Z,54.16
2023-04-13T04:55:14.879Z,53.80
2023-04-13T04:57:46.880Z,54.13
2023-04-13T05:00:17.071Z,53.86
2023-04-13T05:03:00.759Z,53.91
2023-04-13T05:05:31.139Z,54.24
2023-04-13T05:08:03.169Z,53.85
2023-04-13T05:10:30.437Z,54.36
2023-04-13T05:12:58.184Z,53.77
2023-04-13T05:15:26.822Z,54.23
2023-04-13T05:17:55.290Z,53.83
2023-04-13T05:20:26.134Z,54.05
2023-04-13T05:22:59.293Z,53.86
2023-04-13T05:25:27.971Z,53.95
2023-04-13T05:27:59.801Z,54.00
2023-04-13T05:30:27.929Z,53.41
2023-04-13T05:32:55.172Z,53.56
2023-04-13T05:35:23.751Z,53.39
2023-04-13T05:37:51.177Z,53.20
2023-04-13T05:40:22.172Z,53.20
2023-04-13T05:42:49.726Z,53.82
2023-04-13T05:45:26.561Z,53.83
2023-04-13T05:48:06.401Z,53.57
2023-04-13T05:50:33.242Z,52.93
2023-04-13T05:53:01.618Z,52.94
2023-04-13T05:55:37.003Z,52.73
2023-04-13T05:58:05.133Z,52.69
2023-04-13T06:00:32.772Z,52.71
2023-04-13T06:03:05.396Z,52.98
2023-04-13T06:05:34.493Z,52.25
2023-04-13T06:08:02.231Z,52.38
2023-04-13T06:10:29.450Z,52.58
2023-04-13T06:12:56.559Z,52.20
2023-04-13T06:15:23.517Z,52.18
2023-04-13T06:17:53.310Z,51.88
2023-04-13T06:20:21.728Z,51.30
2023-04-13T06:22:50.894Z,51.07
2023-04-13T06:25:21.008Z,50.61
2023-04-13T06:27:49.990Z,50.25
2023-04-13T06:30:19.538Z,50.42
2023-04-13T06:32:48.652Z,50.50
2023-04-13T06:35:21.969Z,50.92
2023-04-13T06:37:51.908Z,51.01
2023-04-13T06:40:32.246Z,50.91
2023-04-13T06:43:04.294Z,50.67
2023-04-13T06:45:43.511Z,50.57
2023-04-13T06:48:18.007Z,50.33
2023-04-13T06:50:46.332Z,50.17
2023-04-13T06:53:13.095Z,49.02
2023-04-13T06:55:41.381Z,49.90
2023-04-13T06:58:11.847Z,49.74
2023-04-13T07:00:38.961Z,49.72
2023-04-13T07:03:05.855Z,49.76
2023-04-13T07:05:33.183Z,49.89
2023-04-13T07:08:08.466Z,49.31
2023-04-13T07:10:39.493Z,49.80
2023-04-13T07:13:14.087Z,49.58
2023-04-13T07:15:42.827Z,49.37
2023-04-13T07:18:12.128Z,48.94
2023-04-13T07:20:39.996Z,49.12
2023-04-13T07:23:09.190Z,49.91
2023-04-13T07:25:37.292Z,49.92
2023-04-13T07:28:06.064Z,49.75
2023-04-13T07:30:33.008Z,50.11
2023-04-13T07:33:00.145Z,50.14
2023-04-13T07:35:27.672Z,49.94
2023-04-13T07:37:55.151Z,49.95
2023-04-13T07:40:21.988Z,50.50
2023-04-13T07:42:52.044Z,49.95
2023-04-13T07:45:20.583Z,50.03
2023-04-13T07:47:48.326Z,50.41
2023-04-13T07:50:16.603Z,50.75
2023-04-13T07:52:44.151Z,50.80
2023-04-13T07:55:11.073Z,50.41
2023-04-13T07:57:44.024Z,50.47
2023-04-13T08:00:12.345Z,50.51
2023-04-13T08:02:46.171Z,49.61
2023-04-13T08:05:18.385Z,49.34
2023-04-13T08:07:46.828Z,49.11
2023-04-13T08:10:15.246Z,49.09
2023-04-13T08:12:42.331Z,47.89
2023-04-13T08:15:10.786Z,46.88
2023-04-13T08:17:37.852Z,45.29
2023-04-13T08:20:08.881Z,44.70
2023-04-13T08:22:36.835Z,44.95
2023-04-13T08:25:07.623Z,45.29
2023-04-13T08:27:35.595Z,45.82
2023-04-13T08:30:03.662Z,47.27
2023-04-13T08:32:41.628Z,46.76
2023-04-13T08:35:11.995Z,45.20
2023-04-13T08:37:42.591Z,43.82
2023-04-13T08:40:12.165Z,43.07
2023-04-13T08:42:41.434Z,41.81
2023-04-13T08:45:09.198Z,41.10
2023-04-13T08:47:40.990Z,39.07
2023-04-13T08:50:09.464Z,36.47
2023-04-13T08:52:57.015Z,33.20
2023-04-13T08:55:26.731Z,31.59
2023-04-13T08:57:59.117Z,29.19
2023-04-13T09:00:26.199Z,26.28
2023-04-13T09:03:05.169Z,25.74
2023-04-13T09:05:39.318Z,26.58
2023-04-13T09:08:08.064Z,26.63
2023-04-13T09:10:37.556Z,26.81
2023-04-13T09:13:05.790Z,28.04
2023-04-13T09:15:35.050Z,29.28
2023-04-13T09:18:26.295Z,32.52
2023-04-13T09:21:00.812Z,33.80
2023-04-13T09:23:28.538Z,35.11
2023-04-13T09:26:08.748Z,35.78
2023-04-13T09:28:47.524Z,36.93
2023-04-13T09:31:15.878Z,37.54
2023-04-13T09:33:48.884Z,37.86
2023-04-13T09:36:17.872Z,37.58
2023-04-13T09:38:52.078Z,37.37
2023-04-13T09:41:38.144Z,37.35
2023-04-13T09:44:20.339Z,36.97
2023-04-13T09:47:02.681Z,35.47
2023-04-13T09:49:42.121Z,35.25
2023-04-13T09:52:23.611Z,36.07
2023-04-13T09:54:55.695Z,36.18
2023-04-13T09:57:26.562Z,37.49
2023-04-13T09:59:55.222Z,38.36
2023-04-13T10:02:22.850Z,38.12
2023-04-13T10:04:50.631Z,37.61
2023-04-13T10:07:18.258Z,36.40
2023-04-13T10:09:45.646Z,34.91
2023-04-13T10:12:17.140Z,34.83
2023-04-13T10:14:49.069Z,35.64
2023-04-13T10:17:26.131Z,36.36
2023-04-13T10:19:55.573Z,36.80
2023-04-13T10:22:24.251Z,37.26
2023-04-13T10:24:53.087Z,36.63
2023-04-13T10:27:21.983Z,36.97
2023-04-13T10:29:51.456Z,36.74
2023-04-13T10:32:43.771Z,36.67
2023-04-13T10:35:21.565Z,37.40
2023-04-13T10:37:57.332Z,37.57
2023-04-13T10:40:28.253Z,38.27
2023-04-13T10:42:55.431Z,38.54
2023-04-13T10:45:28.952Z,38.88
2023-04-13T10:48:07.894Z,39.05
2023-04-13T10:50:37.631Z,39.01
2023-04-13T10:53:13.109Z,39.05
2023-04-13T10:55:40.020Z,38.73
2023-04-13T10:58:18.584Z,38.56
2023-04-13T11:00:50.112Z,38.92
2023-04-13T11:03:20.729Z,38.90
2023-04-13T11:05:50.125Z,38.94
2023-04-13T11:08:21.177Z,38.45
2023-04-13T11:10:52.920Z,38.99
2023-04-13T11:13:24.881Z,38.40
2023-04-13T11:15:51.987Z,37.71
2023-04-13T11:18:29.573Z,36.96
2023-04-13T11:20:56.896Z,37.06
2023-04-13T11:23:24.675Z,37.13
2023-04-13T11:26:02.180Z,36.47
2023-04-13T11:28:47.858Z,36.41
2023-04-13T11:31:14.770Z,35.79
2023-04-13T11:33:45.675Z,34.63
2023-04-13T11:36:20.084Z,35.63
2023-04-13T11:38:50.209Z,35.76
2023-04-13T11:41:17.571Z,36.06
2023-04-13T11:43:51.073Z,36.33
2023-04-13T11:46:25.572Z,36.38
2023-04-13T11:48:55.245Z,36.80
2023-04-13T11:51:22.678Z,37.22
2023-04-13T11:53:51.581Z,36.49
2023-04-13T11:56:25.909Z,36.72
2023-04-13T11:58:53.966Z,36.83
2023-04-13T12:01:26.613Z,37.26
2023-04-13T12:06:34.293Z,38.04
2023-04-13T12:09:12.274Z,39.20
2023-04-13T12:11:49.551Z,38.66
2023-04-13T12:19:30.261Z,34.87
2023-04-13T12:21:59.792Z,32.74
2023-04-13T12:24:37.919Z,32.12
2023-04-13T12:29:49.561Z,32.34
2023-04-13T12:32:17.724Z,33.40
2023-04-13T12:34:45.052Z,33.94
2023-04-13T12:37:12.196Z,33.62
2023-04-13T12:39:41.017Z,33.42
2023-04-13T12:42:08.094Z,33.35
2023-04-13T12:44:36.244Z,33.59
2023-04-13T12:47:08.962Z,33.36
2023-04-13T12:49:36.841Z,33.91
2023-04-13T12:52:04.084Z,34.41
2023-04-13T12:54:32.230Z,34.45
2023-04-13T12:56:59.853Z,34.28
2023-04-13T12:59:26.816Z,34.56
2023-04-13T13:01:53.688Z,34.35
2023-04-13T13:04:20.494Z,34.95
2023-04-13T13:06:47.708Z,36.61
2023-04-13T13:09:15.559Z,40.15
2023-04-13T13:11:42.845Z,45.25
2023-04-13T13:14:11.180Z,49.13
2023-04-13T13:16:38.352Z,50.57
2023-04-13T13:19:06.375Z,52.83
2023-04-13T13:21:33.299Z,54.00
2023-04-13T13:24:00.260Z,55.61
2023-04-13T13:26:30.600Z,56.38
2023-04-13T13:29:06.574Z,56.17
2023-04-13T13:31:33.615Z,54.88
2023-04-13T13:34:00.489Z,53.46
2023-04-13T13:36:27.699Z,52.35
2023-04-13T13:38:54.591Z,50.29
2023-04-13T13:41:22.802Z,49.47
2023-04-13T13:43:52.267Z,48.54
2023-04-13T13:46:19.079Z,48.21
2023-04-13T13:48:46.204Z,48.36
2023-04-13T13:51:38.172Z,47.87
2023-04-13T13:54:07.408Z,46.59
2023-04-13T13:56:34.398Z,46.45
2023-04-13T13:59:01.411Z,45.35
2023-04-13T14:01:28.659Z,45.97
2023-04-13T14:03:55.810Z,45.98
2023-04-13T14:06:22.632Z,44.88
2023-04-13T14:08:49.541Z,44.69
2023-04-13T14:11:16.350Z,45.03
2023-04-13T14:13:43.088Z,44.48
2023-04-13T14:16:09.879Z,44.37
2023-04-13T14:18:36.696Z,44.82
2023-04-13T14:21:04.514Z,44.29
2023-04-13T14:23:33.252Z,44.24
2023-04-13T14:26:00.428Z,44.33
2023-04-13T14:28:27.437Z,44.37
2023-04-13T14:30:55.554Z,47.07
2023-04-13T14:33:23.090Z,49.67
2023-04-13T14:35:50.442Z,50.95
2023-04-13T14:38:17.262Z,51.42
2023-04-13T14:40:43.981Z,52.67
2023-04-13T14:43:10.662Z,53.62
2023-04-13T14:45:37.381Z,52.49
2023-04-13T14:48:04.514Z,52.92
2023-04-13T14:50:31.634Z,53.23
2023-04-13T14:52:58.684Z,53.04
2023-04-13T14:55:25.468Z,53.36
2023-04-13T14:57:52.477Z,52.06
2023-04-13T15:00:47.433Z,48.89
2023-04-13T15:03:14.768Z,48.49
2023-04-13T15:05:49.867Z,47.76
2023-04-13T15:08:18.289Z,47.38
2023-04-13T15:10:45.813Z,47.29
2023-04-13T15:13:13.287Z,47.95
2023-04-13T15:15:42.850Z,47.99
2023-04-13T15:18:10.440Z,48.93
2023-04-13T15:20:40.549Z,49.11
2023-04-13T15:23:12.910Z,49.28
2023-04-13T15:25:41.914Z,48.89
2023-04-13T15:28:10.610Z,48.41
2023-04-13T15:30:37.402Z,48.32
2023-04-13T15:33:04.715Z,48.06
2023-04-13T15:35:34.556Z,47.47
2023-04-13T15:38:02.431Z,47.66
2023-04-13T15:40:32.900Z,47.49
2023-04-13T15:42:59.804Z,46.93
2023-04-13T15:45:26.595Z,47.30
2023-04-13T15:47:53.349Z,47.32
2023-04-13T15:50:20.259Z,47.29
2023-04-13T15:52:47.064Z,47.43
2023-04-13T15:55:15.297Z,47.17
2023-04-13T15:57:43.815Z,47.12
2023-04-13T16:00:11.177Z,47.50
2023-04-13T16:02:38.285Z,48.04
2023-04-13T16:05:05.971Z,48.16
2023-04-13T16:07:32.782Z,49.36
2023-04-13T16:10:01.708Z,49.83
2023-04-13T16:12:33.369Z,50.09
2023-04-13T16:15:01.282Z,49.58
2023-04-13T16:17:32.632Z,49.87
2023-04-13T16:20:19.340Z,49.78
2023-04-13T16:22:50.560Z,49.39
2023-04-13T16:25:19.556Z,49.49
2023-04-13T16:27:50.642Z,49.75
2023-04-13T16:30:18.359Z,49.84
2023-04-13T16:32:46.493Z,49.59
2023-04-13T16:35:13.373Z,50.02
2023-04-13T16:37:45.043Z,50.18
2023-04-13T16:40:12.363Z,51.63
2023-04-13T16:42:40.520Z,52.03
2023-04-13T16:45:11.445Z,53.73
2023-04-13T16:47:39.721Z,54.06
2023-04-13T16:50:07.579Z,53.48
2023-04-13T16:52:34.807Z,53.31
2023-04-13T16:55:02.588Z,53.09
2023-04-13T16:57:29.304Z,52.45
2023-04-13T17:00:00.617Z,52.28
2023-04-13T17:02:31.495Z,52.49
2023-04-13T17:04:58.624Z,52.77
2023-04-13T17:07:26.903Z,52.60
2023-04-13T17:09:54.314Z,52.49
2023-04-13T17:12:25.271Z,52.50
2023-04-13T17:14:52.071Z,53.00
2023-04-13T17:17:18.755Z,52.65
2023-04-13T17:19:45.430Z,52.70
2023-04-13T17:22:13.035Z,52.88
2023-04-13T17:24:39.818Z,52.80
2023-04-13T17:27:06.535Z,52.97
2023-04-13T17:29:36.263Z,52.72
2023-04-13T17:32:02.853Z,52.13
2023-04-13T17:34:29.739Z,52.35
2023-04-13T17:36:59.610Z,52.05
2023-04-13T17:39:27.248Z,52.42
2023-04-13T17:41:55.592Z,51.82
2023-04-13T17:44:22.347Z,51.43
2023-04-13T17:46:50.240Z,50.71
2023-04-13T17:49:17.038Z,50.22
2023-04-13T17:51:48.072Z,50.57
2023-04-13T17:54:14.758Z,51.84
2023-04-13T17:56:41.395Z,51.86
2023-04-13T17:59:08.094Z,51.80
2023-04-13T18:01:34.784Z,52.12
2023-04-13T18:04:02.012Z,52.05
2023-04-13T18:06:28.770Z,52.55
2023-04-13T18:08:55.678Z,52.46
2023-04-13T18:11:22.485Z,52.36
2023-04-13T18:13:49.289Z,52.17
2023-04-13T18:16:16.091Z,51.51
2023-04-13T18:18:42.774Z,51.84
2023-04-13T18:21:09.925Z,51.25
2023-04-13T18:23:36.604Z,50.74
2023-04-13T18:26:03.268Z,50.79
2023-04-13T18:28:29.883Z,49.97
2023-04-13T18:31:02.769Z,50.12
2023-04-13T18:33:33.469Z,50.63
2023-04-13T18:36:01.621Z,50.33
2023-04-13T18:38:28.387Z,50.30
2023-04-13T18:40:55.561Z,50.39
2023-04-13T18:43:23.133Z,50.07
2023-04-13T18:45:49.888Z,50.10
2023-04-13T18:48:16.626Z,51.01
2023-04-13T18:50:44.924Z,51.04
2023-04-13T18:53:11.678Z,50.58
2023-04-13T18:55:39.781Z,50.34
2023-04-13T18:58:07.125Z,50.17
2023-04-13T19:00:33.963Z,50.70
2023-04-13T19:03:00.788Z,51.31
2023-04-13T19:05:28.100Z,51.82
2023-04-13T19:08:00.453Z,52.57
2023-04-13T19:10:28.356Z,52.81
2023-04-13T19:12:55.795Z,53.48
2023-04-13T19:15:22.712Z,53.57
2023-04-13T19:17:52.748Z,54.10
2023-04-13T19:20:25.158Z,54.17
2023-04-13T19:22:52.046Z,54.71
2023-04-13T19:25:18.894Z,55.04
2023-04-13T19:27:46.531Z,55.61
2023-04-13T19:30:14.944Z,55.86
2023-04-13T19:32:44.156Z,55.98
2023-04-13T19:35:13.015Z,56.62
2023-04-13T19:37:40.531Z,56.87
2023-04-13T19:40:14.156Z,57.28
2023-04-13T19:42:42.256Z,57.10
2023-04-13T19:45:10.742Z,57.54
2023-04-13T19:47:38.338Z,57.25
2023-04-13T19:50:07.332Z,57.16
2023-04-13T19:52:34.197Z,57.85
2023-04-13T19:55:01.295Z,57.91
2023-04-13T19:57:28.735Z,57.55
2023-04-13T19:59:55.601Z,58.59
2023-04-13T20:02:22.444Z,58.29
2023-04-13T20:04:50.126Z,59.02
2023-04-13T20:07:17.631Z,59.07
2023-04-13T20:09:44.620Z,59.45
2023-04-13T20:12:12.065Z,59.34
2023-04-13T20:14:42.039Z,59.61
2023-04-13T20:17:09.742Z,59.43
2023-04-13T20:19:36.895Z,59.77
2023-04-13T20:22:04.981Z,59.44
2023-04-13T20:24:32.000Z,59.69
2023-04-13T20:26:58.953Z,59.96
2023-04-13T20:29:27.340Z,59.77
2023-04-13T20:31:54.960Z,60.23
2023-04-13T20:34:22.247Z,59.96
2023-04-13T20:36:49.072Z,60.01
2023-04-13T20:39:18.683Z,60.38
2023-04-13T20:41:51.173Z,60.36
2023-04-13T20:44:23.698Z,60.49
2023-04-13T20:46:54.785Z,60.75
2023-04-13T20:49:25.707Z,60.60
2023-04-13T20:51:57.353Z,60.92
2023-04-13T20:54:24.032Z,61.33
2023-04-13T20:56:51.338Z,61.76
2023-04-13T20:59:18.455Z,61.72
2023-04-13T21:01:45.983Z,61.22
2023-04-13T21:04:13.029Z,61.38
2023-04-13T21:06:40.563Z,61.75
2023-04-13T21:09:08.874Z,61.73
2023-04-13T21:11:36.004Z,62.04
2023-04-13T21:14:04.471Z,61.78
2023-04-13T21:16:34.464Z,62.20
2023-04-13T21:19:01.423Z,62.20
2023-04-13T21:21:28.333Z,62.50
2023-04-13T21:23:56.937Z,62.05
2023-04-13T21:26:23.987Z,62.29
2023-04-13T21:28:51.221Z,62.37
2023-04-13T21:31:18.145Z,62.31
2023-04-13T21:33:45.613Z,62.58
2023-04-13T21:38:42.584Z,62.68
2023-04-13T21:41:19.979Z,62.39
2023-04-13T21:43:47.254Z,62.89
2023-04-13T21:46:16.030Z,62.91
2023-04-13T21:48:43.340Z,62.77
2023-04-13T21:51:10.851Z,62.64
2023-04-13T21:53:38.558Z,62.92
2023-04-13T21:56:06.004Z,62.61
2023-04-13T21:58:43.697Z,62.60
2023-04-13T22:01:13.062Z,62.63
2023-04-13T22:03:43.034Z,62.53
2023-04-13T22:06:11.396Z,62.34
2023-04-13T22:08:39.185Z,63.01
2023-04-13T22:11:06.937Z,62.36
2023-04-13T22:13:34.827Z,63.21
2023-04-13T22:16:01.790Z,62.43
2023-04-13T22:18:28.606Z,63.13
2023-04-13T22:20:55.731Z,62.65
2023-04-13T22:23:24.620Z,63.14
2023-04-13T22:26:01.061Z,62.67
2023-04-13T22:28:29.504Z,63.22
2023-04-13T22:30:57.241Z,63.10
2023-04-13T22:33:24.637Z,62.63
2023-04-13T22:35:52.014Z,63.38
2023-04-13T22:38:19.634Z,62.87
2023-04-13T22:40:51.074Z,62.97
2023-04-13T22:43:18.257Z,62.74
2023-04-13T22:45:45.074Z,62.44
2023-04-13T22:48:11.840Z,62.94
2023-04-13T22:50:39.102Z,62.76
2023-04-13T22:53:06.134Z,62.54
2023-04-13T22:55:33.139Z,62.76
2023-04-13T22:57:59.902Z,63.23
2023-04-13T23:00:26.878Z,62.81
2023-04-13T23:02:56.413Z,62.89
2023-04-13T23:05:23.730Z,63.05
2023-04-13T23:07:50.792Z,62.75
2023-04-13T23:10:18.193Z,62.43
2023-04-13T23:12:47.923Z,62.40
2023-04-13T23:15:16.426Z,61.74
2023-04-13T23:17:43.118Z,61.57
2023-04-13T23:20:12.832Z,61.25
2023-04-13T23:22:39.734Z,61.74
2023-04-13T23:25:11.237Z,61.96
2023-04-13T23:27:38.125Z,61.86
2023-04-13T23:30:06.939Z,62.22
2023-04-13T23:32:34.008Z,62.17
2023-04-13T23:35:01.307Z,62.63
2023-04-13T23:37:28.294Z,62.54
2023-04-13T23:39:55.660Z,63.34
2023-04-13T23:42:22.485Z,63.02
2023-04-13T23:44:50.003Z,63.84
2023-04-13T23:47:17.126Z,64.28
2023-04-13T23:49:43.841Z,64.01
2023-04-13T23:52:10.638Z,64.07
2023-04-13T23:54:37.465Z,64.13
2023-04-13T23:57:04.158Z,64.87
2023-04-13T23:59:31.074Z,64.94
